Wilsonia, California
Current Conditions -  °F | °C
As of 4:56 PM on Monday 24 Nov 2014 (Local Time) from KBIH Reporting Station
Clear Clear  
Wind Chill: 49°   Ceiling: Unl
Heat Index: 49°   Visibility: 10mi
Dew Point:   Wind: 0mph
Humidity: 19%   Direction: NA
Pressure: 30.37"   Gusts: NA
Location:  36.7872°N, 118.66°W
Report Text: KBIH 250056Z AUTO 00000KT 10SM CLR 09/M13 A3037 RMK AO2 SLP286 T00941133
Loading
Personal Weather Stations






























Interactive Weather Map New forecast layout! Learn more

10-Day Weather Forecast

Advertisements
Track Severe Weather on mobile